Alpine Persefone — A8MS7 — position and weather

sailwx.info

Track history (hours):
 
Tides and Currents Weather Stations Pressure Air Temp Water Temp Dewpoint Dewpoint Depression Visibility Wind Speed Wind Dir Waves Ship Positions

Alpine Persefone

Last reported at 2015-Aug-14 07:32 UTC. Time now 2015-Aug-31 06:52 UTC.
Position N 50°16' W 001°18'.
Warning: this ship's position is 16 days out of date.

Length 226 m; draft 11.8 m.

Type: Tanker. MMSI: 636013411.

Date/timePositionNaut miles runAvg speedWind from/ knotsBaromVisibWave heightAir tempDewpointWater temp
2015-Aug-14 07:32N 50°16' W 001°18'2010.1
2015-Aug-14 05:31N 50°22' W 000°47'3212.9
2015-Aug-14 03:04N 50°30' E 000°00'713.5
2015-Aug-14 02:32N 50°32' E 000°11'1313.2
2015-Aug-14 01:34N 50°36' E 000°31'1212.2
2015-Aug-14 00:34N 50°42' E 000°47'1311.1
2015-Aug-13 23:25N 50°50' E 001°03'910.4
2015-Aug-13 22:33N 50°56' E 001°13'1010.4
2015-Aug-13 21:34N 51°03' E 001°25'1312.8
2015-Aug-13 20:34N 51°11' E 001°41'1413.8
2015-Aug-13 19:33N 51°22' E 001°54'1413.8
2015-Aug-13 18:34N 51°33' E 002°08'1513.1
2015-Aug-13 17:25N 51°45' E 002°23'3311.5
2015-Aug-13 14:31N 52°10' E 002°58'1110.6
2015-Aug-13 13:27N 52°19' E 003°10'2211.2
2015-Aug-13 11:30N 52°30' E 003°41'1212.4
2015-Aug-13 10:33N 52°31' E 004°00'9 8.7
2015-Aug-13 09:32N 52°32' E 004°15'0 0.0
2015-Aug-13 08:32N 52°32' E 004°15'0 0.0
2015-Aug-13 07:33N 52°32' E 004°15'4 3.8
2015-Aug-13 06:33N 52°30' E 004°20'1010.2
2015-Aug-13 05:33N 52°28' E 004°36'1 1.4
2015-Aug-13 04:33N 52°28' E 004°38'4 3.9
2015-Aug-13 03:34N 52°26' E 004°44'1 1.3
2015-Aug-13 02:33N 52°25' E 004°45'0 0.0
2015-Aug-13 01:33N 52°25' E 004°45'0 0.0
2015-Aug-13 00:33N 52°25' E 004°45'0 0.0
2015-Aug-12 23:33N 52°25' E 004°45'0 0.0
2015-Aug-12 22:33N 52°25' E 004°45'0 0.0
2015-Aug-12 21:33N 52°25' E 004°45'0 0.0
2015-Aug-12 20:30N 52°25' E 004°45'0 0.0
2015-Aug-12 19:33N 52°25' E 004°45'0 0.0
2015-Aug-12 18:34N 52°25' E 004°45'0 0.0
2015-Aug-12 17:34N 52°25' E 004°45'0 0.0
2015-Aug-12 16:34N 52°25' E 004°45'0 0.0
2015-Aug-12 15:33N 52°25' E 004°45'0 0.0
2015-Aug-12 14:34N 52°25' E 004°45'0 0.0
2015-Aug-12 13:34N 52°25' E 004°45'0 0.0
2015-Aug-12 12:34N 52°25' E 004°45'0 0.0
2015-Aug-12 11:34N 52°25' E 004°45'0 0.0
2015-Aug-12 10:34N 52°25' E 004°45'0 0.0
2015-Aug-12 09:34N 52°25' E 004°45'0 0.0
2015-Aug-12 08:34N 52°25' E 004°45'0 0.0
2015-Aug-12 07:33N 52°25' E 004°45'0 0.0
2015-Aug-12 06:34N 52°25' E 004°45'0 0.0
2015-Aug-12 05:33N 52°25' E 004°45'0 0.0
2015-Aug-12 04:34N 52°25' E 004°45'0 0.0
2015-Aug-12 03:34N 52°25' E 004°45'0 0.0
2015-Aug-12 02:34N 52°25' E 004°45'0 0.0
2015-Aug-12 01:34N 52°25' E 004°45'0 0.0
2015-Aug-12 00:34N 52°25' E 004°45'0 0.0
2015-Aug-11 23:34N 52°25' E 004°45'0 0.0
2015-Aug-11 22:34N 52°25' E 004°45'0 0.0
2015-Aug-11 21:33N 52°25' E 004°45'0 0.0
2015-Aug-11 20:34N 52°25' E 004°45'0 0.0
2015-Aug-11 19:34N 52°25' E 004°45'0 0.0
2015-Aug-11 18:33N 52°25' E 004°45'0 0.0
2015-Aug-11 17:34N 52°25' E 004°45'0 0.0
2015-Aug-11 16:33N 52°25' E 004°45'0 0.0
2015-Aug-11 15:33N 52°25' E 004°45'0 0.0
2015-Aug-11 14:34N 52°25' E 004°45'0 0.0
2015-Aug-11 13:34N 52°25' E 004°45'0 0.0
2015-Aug-11 12:34N 52°25' E 004°45'0 0.0
2015-Aug-11 11:34N 52°25' E 004°45'0 0.0
2015-Aug-11 10:34N 52°25' E 004°45'0 0.0
2015-Aug-11 09:34N 52°25' E 004°45'0 0.0
2015-Aug-11 08:34N 52°25' E 004°45'0 0.0
2015-Aug-11 07:33N 52°25' E 004°45'0 0.0
2015-Aug-11 06:34N 52°25' E 004°45'0 0.0
2015-Aug-11 05:34N 52°25' E 004°45'0 0.0
2015-Aug-11 04:34N 52°25' E 004°45'0 0.0
2015-Aug-11 03:34N 52°25' E 004°45'0 0.0
2015-Aug-11 02:34N 52°25' E 004°45'0 0.0
2015-Aug-11 01:34N 52°25' E 004°45'0 0.0
2015-Aug-11 00:34N 52°25' E 004°45'0 0.0
2015-Aug-10 23:34N 52°25' E 004°45'0 0.0
2015-Aug-10 22:34N 52°25' E 004°45'0 0.0
2015-Aug-10 21:34N 52°25' E 004°45'0 0.0
2015-Aug-10 20:34N 52°25' E 004°45'0 0.0
2015-Aug-10 19:34N 52°25' E 004°45'0 0.0
2015-Aug-10 18:34N 52°25' E 004°45'0 0.0
2015-Aug-10 17:33N 52°25' E 004°45'0 0.0
2015-Aug-10 16:34N 52°25' E 004°45'0 0.0
2015-Aug-10 15:33N 52°25' E 004°45'0 0.0
2015-Aug-10 14:33N 52°25' E 004°45'0 0.0
2015-Aug-10 13:34N 52°25' E 004°45'0 0.0
2015-Aug-10 12:33N 52°25' E 004°45'0 0.0
2015-Aug-10 11:33N 52°25' E 004°45'0 0.0
2015-Aug-10 10:34N 52°25' E 004°45'0 0.0
2015-Aug-10 09:33N 52°25' E 004°45'0 0.0
2015-Aug-10 08:34N 52°25' E 004°45'0 0.0
2015-Aug-10 07:33N 52°25' E 004°45'0 0.0
2015-Aug-10 06:34N 52°25' E 004°45'0 0.0
2015-Aug-10 05:34N 52°25' E 004°45'0 0.0
2015-Aug-10 04:34N 52°25' E 004°45'0 0.0
2015-Aug-10 03:34N 52°25' E 004°45'0 0.0
2015-Aug-10 02:34N 52°25' E 004°45'0 0.0
2015-Aug-10 01:34N 52°25' E 004°45'0 0.0
2015-Aug-10 00:34N 52°25' E 004°45'0 0.0
2015-Aug-09 23:34N 52°25' E 004°45'0 0.0
2015-Aug-09 22:33N 52°25' E 004°45'0 0.0
2015-Aug-09 21:34N 52°25' E 004°45'0 0.0
2015-Aug-09 20:34N 52°25' E 004°45'0 0.0
2015-Aug-09 19:34N 52°25' E 004°45'0 0.0
2015-Aug-09 18:34N 52°25' E 004°45'0 0.0
2015-Aug-09 17:34N 52°25' E 004°45'0 0.0
2015-Aug-09 16:34N 52°25' E 004°45'0 0.0
2015-Aug-09 15:34N 52°25' E 004°45'0 0.0
2015-Aug-09 14:34N 52°25' E 004°45'0 0.0
2015-Aug-09 13:34N 52°25' E 004°45'0 0.0
2015-Aug-09 12:34N 52°25' E 004°45'0 0.0
2015-Aug-09 11:34N 52°25' E 004°45'0 0.0
2015-Aug-09 10:33N 52°25' E 004°45'0 0.0
2015-Aug-09 09:34N 52°25' E 004°45'0 0.0
2015-Aug-09 08:34N 52°25' E 004°45'0 0.0
2015-Aug-09 07:33N 52°25' E 004°45'0 0.0
2015-Aug-09 06:34N 52°25' E 004°45'0 0.0
2015-Aug-09 05:34N 52°25' E 004°45'0 0.0
2015-Aug-09 04:34N 52°25' E 004°45'0 0.0
2015-Aug-09 03:34N 52°25' E 004°45'0 0.0
2015-Aug-09 02:34N 52°25' E 004°45'0 0.0
2015-Aug-09 01:33N 52°25' E 004°45'0 0.0
2015-Aug-09 00:33N 52°25' E 004°45'0 0.0
2015-Aug-08 23:34N 52°25' E 004°45'0 0.0
2015-Aug-08 22:34N 52°25' E 004°45'0 0.0
2015-Aug-08 21:34N 52°25' E 004°45'0 0.0
2015-Aug-08 20:33N 52°25' E 004°45'0 0.0
2015-Aug-08 19:34N 52°25' E 004°45'0 0.0
2015-Aug-08 18:33N 52°25' E 004°45'0 0.0
2015-Aug-08 17:34N 52°25' E 004°45'0 0.0
2015-Aug-08 16:33N 52°25' E 004°45'0 0.0
2015-Aug-08 15:34N 52°25' E 004°45'0 0.0
2015-Aug-08 14:34N 52°25' E 004°45'0 0.0
2015-Aug-08 13:33N 52°25' E 004°45'0 0.0
2015-Aug-08 12:34N 52°25' E 004°45'0 0.0
2015-Aug-08 11:33N 52°25' E 004°45'0 0.0
2015-Aug-08 10:33N 52°25' E 004°45'0 0.0
2015-Aug-08 09:33N 52°25' E 004°45'0 0.0
2015-Aug-08 08:33N 52°25' E 004°45'0 0.0
2015-Aug-08 07:33N 52°25' E 004°45'0 0.0
2015-Aug-08 06:33N 52°25' E 004°45'0 0.0
2015-Aug-08 05:33N 52°25' E 004°45'0 0.0
2015-Aug-08 04:33N 52°25' E 004°45'0 0.0
2015-Aug-08 03:33N 52°25' E 004°45'0 0.0
2015-Aug-08 02:33N 52°25' E 004°45'0 0.0
2015-Aug-08 01:33N 52°25' E 004°45'0 0.0
2015-Aug-08 00:33N 52°25' E 004°45'0 0.0
2015-Aug-07 23:33N 52°25' E 004°45'0 0.0
2015-Aug-07 22:30N 52°25' E 004°45'0 0.0
2015-Aug-07 21:33N 52°25' E 004°45'0 0.0
2015-Aug-07 20:33N 52°25' E 004°45'0 0.0
2015-Aug-07 19:33N 52°25' E 004°45'0 0.0
2015-Aug-07 18:27N 52°25' E 004°45'0 0.0
2015-Aug-07 17:33N 52°25' E 004°45'0 0.0
2015-Aug-07 16:33N 52°25' E 004°45'0 0.0
2015-Aug-07 15:33N 52°25' E 004°45'3 3.5
2015-Aug-07 14:33N 52°27' E 004°41'3 3.0
2015-Aug-07 13:33N 52°28' E 004°36'7 7.1
2015-Aug-07 12:33N 52°29' E 004°24'10 9.9
2015-Aug-07 11:33N 52°29' E 004°08'8 7.8
2015-Aug-07 10:32N 52°26' E 003°56'0 0.0
2015-Aug-07 09:32N 52°26' E 003°56'0 0.0
2015-Aug-07 08:32N 52°26' E 003°56'0 0.0
2015-Aug-07 07:32N 52°26' E 003°56'0 0.4
2015-Aug-07 06:34N 52°26' E 003°56'10 9.5
2015-Aug-07 05:33N 52°26' E 003°40'1211.5
2015-Aug-07 04:32N 52°17' E 003°28'1312.5
2015-Aug-07 03:28N 52°03' E 003°24'1112.0
2015-Aug-07 02:33N 51°53' E 003°22'1111.2
2015-Aug-07 01:32N 51°43' E 003°11'1111.1
2015-Aug-07 00:32N 51°32' E 003°08'8 8.5
2015-Aug-06 23:34N 51°25' E 003°03'1515.0
2015-Aug-06 22:34N 51°25' E 003°27'10 9.6
2015-Aug-06 21:33N 51°25' E 003°43'1110.6
2015-Aug-06 20:33N 51°26' E 003°59'1010.0
2015-Aug-06 19:34N 51°22' E 004°14'2 2.3
2015-Aug-06 18:30N 51°21' E 004°17'0 0.0
2015-Aug-06 17:34N 51°21' E 004°17'1 1.2
2015-Aug-06 16:25N 51°20' E 004°18'0 0.0
2015-Aug-06 15:22N 51°20' E 004°18'0 0.0
2015-Aug-06 14:07N 51°20' E 004°18'0 0.0
2015-Aug-06 13:22N 51°20' E 004°18'0 0.0
2015-Aug-06 12:28N 51°20' E 004°18'0 0.0
2015-Aug-06 11:28N 51°20' E 004°18'0 0.0
2015-Aug-06 10:25N 51°20' E 004°18'0 0.0
2015-Aug-06 09:28N 51°20' E 004°18'0 0.0
2015-Aug-06 08:28N 51°20' E 004°18'0 0.0
2015-Aug-06 07:28N 51°20' E 004°18'0 0.0
2015-Aug-06 06:28N 51°20' E 004°18'0 0.0
2015-Aug-06 05:31N 51°20' E 004°18'0 0.0
2015-Aug-06 04:28N 51°20' E 004°18'0 0.0
2015-Aug-06 03:31N 51°20' E 004°18'0 0.0
2015-Aug-06 02:31N 51°20' E 004°18'0 0.0
2015-Aug-06 01:33N 51°20' E 004°18'2 0.9
2015-Aug-05 23:29N 51°21' E 004°18'0 0.0
2015-Aug-05 22:29N 51°21' E 004°18'0 0.0
2015-Aug-05 19:23N 51°21' E 004°18'0 0.0
2015-Aug-05 18:29N 51°21' E 004°18'0 0.0
2015-Aug-05 16:29N 51°21' E 004°18'0 0.0
2015-Aug-05 15:29N 51°21' E 004°18'0 0.0
2015-Aug-05 14:29N 51°21' E 004°18'0 0.0
2015-Aug-05 11:08N 51°21' E 004°18'0 0.0
2015-Aug-05 09:23N 51°21' E 004°18'0 0.0
2015-Aug-05 06:26N 51°21' E 004°18'0 0.0
2015-Aug-05 03:32N 51°21' E 004°18'0 0.0
2015-Aug-05 02:32N 51°21' E 004°18'0 0.0
2015-Aug-05 01:32N 51°21' E 004°18'0 0.0
2015-Aug-04 21:29N 51°21' E 004°18'0 0.0
2015-Aug-04 16:26N 51°21' E 004°18'0 0.0
2015-Aug-04 11:23N 51°21' E 004°18'0 0.0
2015-Aug-04 08:17N 51°21' E 004°18'  
Track history (hours):
 
Tides and Currents Weather Stations Pressure Air Temp Water Temp Dewpoint Dewpoint Depression Visibility Wind Speed Wind Dir Waves Ship Positions

Alpine Persefone

Last reported at 2015-Aug-14 07:32 UTC. Time now 2015-Aug-31 06:52 UTC.
Position N 50°16' W 001°18'.
Warning: this ship's position is 16 days out of date.

Length 226 m; draft 11.8 m.

Type: Tanker. MMSI: 636013411.

Date/timePositionNaut miles runAvg speedWind from/ knotsBaromVisibWave heightAir tempDewpointWater temp
2015-Aug-14 07:32N 50°16' W 001°18'2010.1
2015-Aug-14 05:31N 50°22' W 000°47'3212.9
2015-Aug-14 03:04N 50°30' E 000°00'713.5
2015-Aug-14 02:32N 50°32' E 000°11'1313.2
2015-Aug-14 01:34N 50°36' E 000°31'1212.2
2015-Aug-14 00:34N 50°42' E 000°47'1311.1
2015-Aug-13 23:25N 50°50' E 001°03'910.4
2015-Aug-13 22:33N 50°56' E 001°13'1010.4
2015-Aug-13 21:34N 51°03' E 001°25'1312.8
2015-Aug-13 20:34N 51°11' E 001°41'1413.8
2015-Aug-13 19:33N 51°22' E 001°54'1413.8
2015-Aug-13 18:34N 51°33' E 002°08'1513.1
2015-Aug-13 17:25N 51°45' E 002°23'3311.5
2015-Aug-13 14:31N 52°10' E 002°58'1110.6
2015-Aug-13 13:27N 52°19' E 003°10'2211.2
2015-Aug-13 11:30N 52°30' E 003°41'1212.4
2015-Aug-13 10:33N 52°31' E 004°00'9 8.7
2015-Aug-13 09:32N 52°32' E 004°15'0 0.0
2015-Aug-13 08:32N 52°32' E 004°15'0 0.0
2015-Aug-13 07:33N 52°32' E 004°15'4 3.8
2015-Aug-13 06:33N 52°30' E 004°20'1010.2
2015-Aug-13 05:33N 52°28' E 004°36'1 1.4
2015-Aug-13 04:33N 52°28' E 004°38'4 3.9
2015-Aug-13 03:34N 52°26' E 004°44'1 1.3
2015-Aug-13 02:33N 52°25' E 004°45'0 0.0
2015-Aug-13 01:33N 52°25' E 004°45'0 0.0
2015-Aug-13 00:33N 52°25' E 004°45'0 0.0
2015-Aug-12 23:33N 52°25' E 004°45'0 0.0
2015-Aug-12 22:33N 52°25' E 004°45'0 0.0
2015-Aug-12 21:33N 52°25' E 004°45'0 0.0
2015-Aug-12 20:30N 52°25' E 004°45'0 0.0
2015-Aug-12 19:33N 52°25' E 004°45'0 0.0
2015-Aug-12 18:34N 52°25' E 004°45'0 0.0
2015-Aug-12 17:34N 52°25' E 004°45'0 0.0
2015-Aug-12 16:34N 52°25' E 004°45'0 0.0
2015-Aug-12 15:33N 52°25' E 004°45'0 0.0
2015-Aug-12 14:34N 52°25' E 004°45'0 0.0
2015-Aug-12 13:34N 52°25' E 004°45'0 0.0
2015-Aug-12 12:34N 52°25' E 004°45'0 0.0
2015-Aug-12 11:34N 52°25' E 004°45'0 0.0
2015-Aug-12 10:34N 52°25' E 004°45'0 0.0
2015-Aug-12 09:34N 52°25' E 004°45'0 0.0
2015-Aug-12 08:34N 52°25' E 004°45'0 0.0
2015-Aug-12 07:33N 52°25' E 004°45'0 0.0
2015-Aug-12 06:34N 52°25' E 004°45'0 0.0
2015-Aug-12 05:33N 52°25' E 004°45'0 0.0
2015-Aug-12 04:34N 52°25' E 004°45'0 0.0
2015-Aug-12 03:34N 52°25' E 004°45'0 0.0
2015-Aug-12 02:34N 52°25' E 004°45'0 0.0
2015-Aug-12 01:34N 52°25' E 004°45'0 0.0
2015-Aug-12 00:34N 52°25' E 004°45'0 0.0
2015-Aug-11 23:34N 52°25' E 004°45'0 0.0
2015-Aug-11 22:34N 52°25' E 004°45'0 0.0
2015-Aug-11 21:33N 52°25' E 004°45'0 0.0
2015-Aug-11 20:34N 52°25' E 004°45'0 0.0
2015-Aug-11 19:34N 52°25' E 004°45'0 0.0
2015-Aug-11 18:33N 52°25' E 004°45'0 0.0
2015-Aug-11 17:34N 52°25' E 004°45'0 0.0
2015-Aug-11 16:33N 52°25' E 004°45'0 0.0
2015-Aug-11 15:33N 52°25' E 004°45'0 0.0
2015-Aug-11 14:34N 52°25' E 004°45'0 0.0
2015-Aug-11 13:34N 52°25' E 004°45'0 0.0
2015-Aug-11 12:34N 52°25' E 004°45'0 0.0
2015-Aug-11 11:34N 52°25' E 004°45'0 0.0
2015-Aug-11 10:34N 52°25' E 004°45'0 0.0
2015-Aug-11 09:34N 52°25' E 004°45'0 0.0
2015-Aug-11 08:34N 52°25' E 004°45'0 0.0
2015-Aug-11 07:33N 52°25' E 004°45'0 0.0
2015-Aug-11 06:34N 52°25' E 004°45'0 0.0
2015-Aug-11 05:34N 52°25' E 004°45'0 0.0
2015-Aug-11 04:34N 52°25' E 004°45'0 0.0
2015-Aug-11 03:34N 52°25' E 004°45'0 0.0
2015-Aug-11 02:34N 52°25' E 004°45'0 0.0
2015-Aug-11 01:34N 52°25' E 004°45'0 0.0
2015-Aug-11 00:34N 52°25' E 004°45'0 0.0
2015-Aug-10 23:34N 52°25' E 004°45'0 0.0
2015-Aug-10 22:34N 52°25' E 004°45'0 0.0
2015-Aug-10 21:34N 52°25' E 004°45'0 0.0
2015-Aug-10 20:34N 52°25' E 004°45'0 0.0
2015-Aug-10 19:34N 52°25' E 004°45'0 0.0
2015-Aug-10 18:34N 52°25' E 004°45'0 0.0
2015-Aug-10 17:33N 52°25' E 004°45'0 0.0
2015-Aug-10 16:34N 52°25' E 004°45'0 0.0
2015-Aug-10 15:33N 52°25' E 004°45'0 0.0
2015-Aug-10 14:33N 52°25' E 004°45'0 0.0
2015-Aug-10 13:34N 52°25' E 004°45'0 0.0
2015-Aug-10 12:33N 52°25' E 004°45'0 0.0
2015-Aug-10 11:33N 52°25' E 004°45'0 0.0
2015-Aug-10 10:34N 52°25' E 004°45'0 0.0
2015-Aug-10 09:33N 52°25' E 004°45'0 0.0
2015-Aug-10 08:34N 52°25' E 004°45'0 0.0
2015-Aug-10 07:33N 52°25' E 004°45'0 0.0
2015-Aug-10 06:34N 52°25' E 004°45'0 0.0
2015-Aug-10 05:34N 52°25' E 004°45'0 0.0
2015-Aug-10 04:34N 52°25' E 004°45'0 0.0
2015-Aug-10 03:34N 52°25' E 004°45'0 0.0
2015-Aug-10 02:34N 52°25' E 004°45'0 0.0
2015-Aug-10 01:34N 52°25' E 004°45'0 0.0
2015-Aug-10 00:34N 52°25' E 004°45'0 0.0
2015-Aug-09 23:34N 52°25' E 004°45'0 0.0
2015-Aug-09 22:33N 52°25' E 004°45'0 0.0
2015-Aug-09 21:34N 52°25' E 004°45'0 0.0
2015-Aug-09 20:34N 52°25' E 004°45'0 0.0
2015-Aug-09 19:34N 52°25' E 004°45'0 0.0
2015-Aug-09 18:34N 52°25' E 004°45'0 0.0
2015-Aug-09 17:34N 52°25' E 004°45'0 0.0
2015-Aug-09 16:34N 52°25' E 004°45'0 0.0
2015-Aug-09 15:34N 52°25' E 004°45'0 0.0
2015-Aug-09 14:34N 52°25' E 004°45'0 0.0
2015-Aug-09 13:34N 52°25' E 004°45'0 0.0
2015-Aug-09 12:34N 52°25' E 004°45'0 0.0
2015-Aug-09 11:34N 52°25' E 004°45'0 0.0
2015-Aug-09 10:33N 52°25' E 004°45'0 0.0
2015-Aug-09 09:34N 52°25' E 004°45'0 0.0
2015-Aug-09 08:34N 52°25' E 004°45'0 0.0
2015-Aug-09 07:33N 52°25' E 004°45'0 0.0
2015-Aug-09 06:34N 52°25' E 004°45'0 0.0
2015-Aug-09 05:34N 52°25' E 004°45'0 0.0
2015-Aug-09 04:34N 52°25' E 004°45'0 0.0
2015-Aug-09 03:34N 52°25' E 004°45'0 0.0
2015-Aug-09 02:34N 52°25' E 004°45'0 0.0
2015-Aug-09 01:33N 52°25' E 004°45'0 0.0
2015-Aug-09 00:33N 52°25' E 004°45'0 0.0
2015-Aug-08 23:34N 52°25' E 004°45'0 0.0
2015-Aug-08 22:34N 52°25' E 004°45'0 0.0
2015-Aug-08 21:34N 52°25' E 004°45'0 0.0
2015-Aug-08 20:33N 52°25' E 004°45'0 0.0
2015-Aug-08 19:34N 52°25' E 004°45'0 0.0
2015-Aug-08 18:33N 52°25' E 004°45'0 0.0
2015-Aug-08 17:34N 52°25' E 004°45'0 0.0
2015-Aug-08 16:33N 52°25' E 004°45'0 0.0
2015-Aug-08 15:34N 52°25' E 004°45'0 0.0
2015-Aug-08 14:34N 52°25' E 004°45'0 0.0
2015-Aug-08 13:33N 52°25' E 004°45'0 0.0
2015-Aug-08 12:34N 52°25' E 004°45'0 0.0
2015-Aug-08 11:33N 52°25' E 004°45'0 0.0
2015-Aug-08 10:33N 52°25' E 004°45'0 0.0
2015-Aug-08 09:33N 52°25' E 004°45'0 0.0
2015-Aug-08 08:33N 52°25' E 004°45'0 0.0
2015-Aug-08 07:33N 52°25' E 004°45'0 0.0
2015-Aug-08 06:33N 52°25' E 004°45'0 0.0
2015-Aug-08 05:33N 52°25' E 004°45'0 0.0
2015-Aug-08 04:33N 52°25' E 004°45'0 0.0
2015-Aug-08 03:33N 52°25' E 004°45'0 0.0
2015-Aug-08 02:33N 52°25' E 004°45'0 0.0
2015-Aug-08 01:33N 52°25' E 004°45'0 0.0
2015-Aug-08 00:33N 52°25' E 004°45'0 0.0
2015-Aug-07 23:33N 52°25' E 004°45'0 0.0
2015-Aug-07 22:30N 52°25' E 004°45'0 0.0
2015-Aug-07 21:33N 52°25' E 004°45'0 0.0
2015-Aug-07 20:33N 52°25' E 004°45'0 0.0
2015-Aug-07 19:33N 52°25' E 004°45'0 0.0
2015-Aug-07 18:27N 52°25' E 004°45'0 0.0
2015-Aug-07 17:33N 52°25' E 004°45'0 0.0
2015-Aug-07 16:33N 52°25' E 004°45'0 0.0
2015-Aug-07 15:33N 52°25' E 004°45'3 3.5
2015-Aug-07 14:33N 52°27' E 004°41'3 3.0
2015-Aug-07 13:33N 52°28' E 004°36'7 7.1
2015-Aug-07 12:33N 52°29' E 004°24'10 9.9
2015-Aug-07 11:33N 52°29' E 004°08'8 7.8
2015-Aug-07 10:32N 52°26' E 003°56'0 0.0
2015-Aug-07 09:32N 52°26' E 003°56'0 0.0
2015-Aug-07 08:32N 52°26' E 003°56'0 0.0
2015-Aug-07 07:32N 52°26' E 003°56'0 0.4
2015-Aug-07 06:34N 52°26' E 003°56'10 9.5
2015-Aug-07 05:33N 52°26' E 003°40'1211.5
2015-Aug-07 04:32N 52°17' E 003°28'1312.5
2015-Aug-07 03:28N 52°03' E 003°24'1112.0
2015-Aug-07 02:33N 51°53' E 003°22'1111.2
2015-Aug-07 01:32N 51°43' E 003°11'1111.1
2015-Aug-07 00:32N 51°32' E 003°08'8 8.5
2015-Aug-06 23:34N 51°25' E 003°03'1515.0
2015-Aug-06 22:34N 51°25' E 003°27'10 9.6
2015-Aug-06 21:33N 51°25' E 003°43'1110.6
2015-Aug-06 20:33N 51°26' E 003°59'1010.0
2015-Aug-06 19:34N 51°22' E 004°14'2 2.3
2015-Aug-06 18:30N 51°21' E 004°17'0 0.0
2015-Aug-06 17:34N 51°21' E 004°17'1 1.2
2015-Aug-06 16:25N 51°20' E 004°18'0 0.0
2015-Aug-06 15:22N 51°20' E 004°18'0 0.0
2015-Aug-06 14:07N 51°20' E 004°18'0 0.0
2015-Aug-06 13:22N 51°20' E 004°18'0 0.0
2015-Aug-06 12:28N 51°20' E 004°18'0 0.0
2015-Aug-06 11:28N 51°20' E 004°18'0 0.0
2015-Aug-06 10:25N 51°20' E 004°18'0 0.0
2015-Aug-06 09:28N 51°20' E 004°18'0 0.0
2015-Aug-06 08:28N 51°20' E 004°18'0 0.0
2015-Aug-06 07:28N 51°20' E 004°18'0 0.0
2015-Aug-06 06:28N 51°20' E 004°18'0 0.0
2015-Aug-06 05:31N 51°20' E 004°18'0 0.0
2015-Aug-06 04:28N 51°20' E 004°18'0 0.0
2015-Aug-06 03:31N 51°20' E 004°18'0 0.0
2015-Aug-06 02:31N 51°20' E 004°18'0 0.0
2015-Aug-06 01:33N 51°20' E 004°18'2 0.9
2015-Aug-05 23:29N 51°21' E 004°18'0 0.0
2015-Aug-05 22:29N 51°21' E 004°18'0 0.0
2015-Aug-05 19:23N 51°21' E 004°18'0 0.0
2015-Aug-05 18:29N 51°21' E 004°18'0 0.0
2015-Aug-05 16:29N 51°21' E 004°18'0 0.0
2015-Aug-05 15:29N 51°21' E 004°18'0 0.0
2015-Aug-05 14:29N 51°21' E 004°18'0 0.0
2015-Aug-05 11:08N 51°21' E 004°18'0 0.0
2015-Aug-05 09:23N 51°21' E 004°18'0 0.0
2015-Aug-05 06:26N 51°21' E 004°18'0 0.0
2015-Aug-05 03:32N 51°21' E 004°18'0 0.0
2015-Aug-05 02:32N 51°21' E 004°18'0 0.0
2015-Aug-05 01:32N 51°21' E 004°18'0 0.0
2015-Aug-04 21:29N 51°21' E 004°18'0 0.0
2015-Aug-04 16:26N 51°21' E 004°18'0 0.0
2015-Aug-04 11:23N 51°21' E 004°18'0 0.0
2015-Aug-04 08:17N 51°21' E 004°18'  

Dump ship's entire track history